sensor_id;sensor_type;location;lat;lon;timestamp;P1;durP1;ratioP1;P2;durP2;ratioP2
40286;SDS011;25998;46.604;13.610;2023-10-13T00:01:51;15.35;;;10.02;;
40286;SDS011;25998;46.604;13.610;2023-10-13T00:05:03;20.40;;;11.20;;
40286;SDS011;25998;46.604;13.610;2023-10-13T00:08:14;16.25;;;10.43;;
40286;SDS011;25998;46.604;13.610;2023-10-13T00:11:25;15.65;;;10.23;;
40286;SDS011;25998;46.604;13.610;2023-10-13T00:14:37;14.65;;;10.00;;
40286;SDS011;25998;46.604;13.610;2023-10-13T00:17:47;18.73;;;9.95;;
40286;SDS011;25998;46.604;13.610;2023-10-13T00:20:59;17.70;;;10.02;;
40286;SDS011;25998;46.604;13.610;2023-10-13T00:24:22;14.27;;;9.95;;
40286;SDS011;25998;46.604;13.610;2023-10-13T00:27:39;17.02;;;9.48;;
40286;SDS011;25998;46.604;13.610;2023-10-13T00:30:52;20.35;;;10.48;;
40286;SDS011;25998;46.604;13.610;2023-10-13T00:34:10;15.07;;;9.32;;
40286;SDS011;25998;46.604;13.610;2023-10-13T00:37:21;14.88;;;9.57;;
40286;SDS011;25998;46.604;13.610;2023-10-13T00:40:42;19.70;;;10.00;;
40286;SDS011;25998;46.604;13.610;2023-10-13T00:44:02;19.40;;;10.63;;
40286;SDS011;25998;46.604;13.610;2023-10-13T00:47:20;15.25;;;10.15;;
40286;SDS011;25998;46.604;13.610;2023-10-13T00:50:46;18.90;;;9.80;;
40286;SDS011;25998;46.604;13.610;2023-10-13T00:53:57;20.10;;;10.93;;
40286;SDS011;25998;46.604;13.610;2023-10-13T01:00:37;13.57;;;9.03;;
40286;SDS011;25998;46.604;13.610;2023-10-13T01:03:57;17.15;;;10.10;;
40286;SDS011;25998;46.604;13.610;2023-10-13T01:07:13;14.60;;;9.95;;
40286;SDS011;25998;46.604;13.610;2023-10-13T01:10:26;12.77;;;9.52;;
40286;SDS011;25998;46.604;13.610;2023-10-13T01:13:37;15.85;;;9.13;;
40286;SDS011;25998;46.604;13.610;2023-10-13T01:16:48;14.02;;;9.95;;
40286;SDS011;25998;46.604;13.610;2023-10-13T01:20:05;15.02;;;9.77;;
40286;SDS011;25998;46.604;13.610;2023-10-13T01:23:18;14.05;;;9.43;;
40286;SDS011;25998;46.604;13.610;2023-10-13T01:26:28;17.95;;;9.73;;
40286;SDS011;25998;46.604;13.610;2023-10-13T01:29:39;12.60;;;8.63;;
40286;SDS011;25998;46.604;13.610;2023-10-13T01:32:50;18.08;;;9.70;;
40286;SDS011;25998;46.604;13.610;2023-10-13T01:36:04;16.25;;;9.10;;
40286;SDS011;25998;46.604;13.610;2023-10-13T01:39:20;17.42;;;10.23;;
40286;SDS011;25998;46.604;13.610;2023-10-13T01:42:37;15.40;;;8.98;;
40286;SDS011;25998;46.604;13.610;2023-10-13T01:45:48;13.75;;;9.13;;
40286;SDS011;25998;46.604;13.610;2023-10-13T01:48:59;12.80;;;8.80;;
40286;SDS011;25998;46.604;13.610;2023-10-13T01:52:10;12.45;;;9.23;;
40286;SDS011;25998;46.604;13.610;2023-10-13T01:55:22;14.38;;;8.52;;
40286;SDS011;25998;46.604;13.610;2023-10-13T01:58:33;15.20;;;9.70;;
40286;SDS011;25998;46.604;13.610;2023-10-13T02:01:44;17.10;;;8.88;;
40286;SDS011;25998;46.604;13.610;2023-10-13T02:04:55;14.68;;;9.52;;
40286;SDS011;25998;46.604;13.610;2023-10-13T02:08:07;18.60;;;10.13;;
40286;SDS011;25998;46.604;13.610;2023-10-13T02:11:20;13.00;;;9.20;;
40286;SDS011;25998;46.604;13.610;2023-10-13T02:14:31;16.73;;;9.02;;
40286;SDS011;25998;46.604;13.610;2023-10-13T02:17:43;18.02;;;9.52;;
40286;SDS011;25998;46.604;13.610;2023-10-13T02:20:55;18.15;;;9.05;;
40286;SDS011;25998;46.604;13.610;2023-10-13T02:24:14;16.70;;;9.73;;
40286;SDS011;25998;46.604;13.610;2023-10-13T02:27:28;14.82;;;9.00;;
40286;SDS011;25998;46.604;13.610;2023-10-13T02:30:39;17.08;;;8.75;;
40286;SDS011;25998;46.604;13.610;2023-10-13T02:33:54;14.68;;;9.52;;
40286;SDS011;25998;46.604;13.610;2023-10-13T02:37:05;12.98;;;9.05;;
40286;SDS011;25998;46.604;13.610;2023-10-13T02:40:19;16.35;;;9.30;;
40286;SDS011;25998;46.604;13.610;2023-10-13T02:43:33;14.30;;;8.45;;
40286;SDS011;25998;46.604;13.610;2023-10-13T02:46:45;17.58;;;10.18;;
40286;SDS011;25998;46.604;13.610;2023-10-13T02:50:00;13.52;;;8.43;;
40286;SDS011;25998;46.604;13.610;2023-10-13T02:53:11;16.45;;;9.15;;
40286;SDS011;25998;46.604;13.610;2023-10-13T02:56:28;13.18;;;8.57;;
40286;SDS011;25998;46.604;13.610;2023-10-13T02:59:40;11.57;;;8.02;;
40286;SDS011;25998;46.604;13.610;2023-10-13T03:02:56;14.30;;;8.82;;
40286;SDS011;25998;46.604;13.610;2023-10-13T03:06:11;16.45;;;8.68;;
40286;SDS011;25998;46.604;13.610;2023-10-13T03:09:22;15.00;;;8.85;;
40286;SDS011;25998;46.604;13.610;2023-10-13T03:12:33;20.35;;;8.60;;
40286;SDS011;25998;46.604;13.610;2023-10-13T03:15:43;17.00;;;8.40;;
40286;SDS011;25998;46.604;13.610;2023-10-13T03:18:57;12.95;;;8.38;;
40286;SDS011;25998;46.604;13.610;2023-10-13T03:22:09;15.10;;;9.20;;
40286;SDS011;25998;46.604;13.610;2023-10-13T03:25:26;12.75;;;8.15;;
40286;SDS011;25998;46.604;13.610;2023-10-13T03:28:40;13.43;;;7.30;;
40286;SDS011;25998;46.604;13.610;2023-10-13T03:31:51;13.00;;;8.52;;
40286;SDS011;25998;46.604;13.610;2023-10-13T03:35:16;18.10;;;8.98;;
40286;SDS011;25998;46.604;13.610;2023-10-13T03:38:34;12.48;;;8.15;;
40286;SDS011;25998;46.604;13.610;2023-10-13T03:41:46;13.20;;;8.02;;
40286;SDS011;25998;46.604;13.610;2023-10-13T03:45:03;14.93;;;8.80;;
40286;SDS011;25998;46.604;13.610;2023-10-13T03:48:20;14.68;;;8.38;;
40286;SDS011;25998;46.604;13.610;2023-10-13T03:51:37;42.70;;;11.20;;
40286;SDS011;25998;46.604;13.610;2023-10-13T03:54:49;48.83;;;12.45;;
40286;SDS011;25998;46.604;13.610;2023-10-13T03:58:01;52.08;;;12.45;;
40286;SDS011;25998;46.604;13.610;2023-10-13T04:01:13;45.78;;;12.55;;
40286;SDS011;25998;46.604;13.610;2023-10-13T04:04:27;45.80;;;12.55;;
40286;SDS011;25998;46.604;13.610;2023-10-13T04:08:01;41.00;;;11.17;;
40286;SDS011;25998;46.604;13.610;2023-10-13T04:11:31;41.63;;;11.48;;
40286;SDS011;25998;46.604;13.610;2023-10-13T04:15:02;63.05;;;14.05;;
40286;SDS011;25998;46.604;13.610;2023-10-13T04:18:16;64.80;;;13.73;;
40286;SDS011;25998;46.604;13.610;2023-10-13T04:21:46;70.47;;;15.40;;
40286;SDS011;25998;46.604;13.610;2023-10-13T04:25:08;60.63;;;14.90;;
40286;SDS011;25998;46.604;13.610;2023-10-13T04:28:38;59.75;;;13.23;;
40286;SDS011;25998;46.604;13.610;2023-10-13T04:32:00;40.75;;;11.73;;
40286;SDS011;25998;46.604;13.610;2023-10-13T04:35:13;36.38;;;10.75;;
40286;SDS011;25998;46.604;13.610;2023-10-13T04:38:24;42.00;;;11.55;;
40286;SDS011;25998;46.604;13.610;2023-10-13T04:41:43;30.70;;;11.32;;
40286;SDS011;25998;46.604;13.610;2023-10-13T04:45:00;36.33;;;11.30;;
40286;SDS011;25998;46.604;13.610;2023-10-13T04:48:26;25.27;;;9.82;;
40286;SDS011;25998;46.604;13.610;2023-10-13T04:51:37;34.00;;;10.38;;
40286;SDS011;25998;46.604;13.610;2023-10-13T04:55:03;40.80;;;10.20;;
40286;SDS011;25998;46.604;13.610;2023-10-13T04:58:47;31.38;;;10.07;;
40286;SDS011;25998;46.604;13.610;2023-10-13T05:02:21;39.58;;;9.75;;
40286;SDS011;25998;46.604;13.610;2023-10-13T05:05:46;32.72;;;10.30;;
40286;SDS011;25998;46.604;13.610;2023-10-13T05:08:57;26.67;;;9.45;;
40286;SDS011;25998;46.604;13.610;2023-10-13T05:12:27;29.67;;;9.60;;
40286;SDS011;25998;46.604;13.610;2023-10-13T05:15:56;44.08;;;11.55;;
40286;SDS011;25998;46.604;13.610;2023-10-13T05:19:25;26.13;;;10.67;;
40286;SDS011;25998;46.604;13.610;2023-10-13T05:22:55;38.40;;;11.40;;
40286;SDS011;25998;46.604;13.610;2023-10-13T05:26:24;60.15;;;13.15;;
40286;SDS011;25998;46.604;13.610;2023-10-13T05:30:03;42.55;;;11.82;;
40286;SDS011;25998;46.604;13.610;2023-10-13T05:33:34;57.40;;;13.80;;
40286;SDS011;25998;46.604;13.610;2023-10-13T05:37:03;34.78;;;10.52;;
40286;SDS011;25998;46.604;13.610;2023-10-13T05:40:33;35.33;;;11.00;;
40286;SDS011;25998;46.604;13.610;2023-10-13T05:44:03;41.22;;;11.90;;
40286;SDS011;25998;46.604;13.610;2023-10-13T05:47:32;41.70;;;10.63;;
40286;SDS011;25998;46.604;13.610;2023-10-13T05:50:52;41.47;;;12.00;;
40286;SDS011;25998;46.604;13.610;2023-10-13T05:54:21;36.80;;;10.35;;
40286;SDS011;25998;46.604;13.610;2023-10-13T05:57:51;44.20;;;11.98;;
40286;SDS011;25998;46.604;13.610;2023-10-13T06:01:23;34.75;;;10.38;;
40286;SDS011;25998;46.604;13.610;2023-10-13T06:04:52;38.80;;;9.65;;
40286;SDS011;25998;46.604;13.610;2023-10-13T06:08:21;38.10;;;11.57;;
40286;SDS011;25998;46.604;13.610;2023-10-13T06:12:07;36.53;;;10.60;;
40286;SDS011;25998;46.604;13.610;2023-10-13T06:15:37;20.07;;;8.17;;
40286;SDS011;25998;46.604;13.610;2023-10-13T06:19:06;30.30;;;8.97;;
40286;SDS011;25998;46.604;13.610;2023-10-13T06:22:36;37.38;;;9.68;;
40286;SDS011;25998;46.604;13.610;2023-10-13T06:26:05;35.53;;;11.67;;
40286;SDS011;25998;46.604;13.610;2023-10-13T06:29:35;37.63;;;10.80;;
40286;SDS011;25998;46.604;13.610;2023-10-13T06:32:46;38.47;;;11.73;;
40286;SDS011;25998;46.604;13.610;2023-10-13T06:35:57;59.45;;;13.70;;
40286;SDS011;25998;46.604;13.610;2023-10-13T06:39:08;75.68;;;16.90;;
40286;SDS011;25998;46.604;13.610;2023-10-13T06:42:52;49.47;;;12.93;;
40286;SDS011;25998;46.604;13.610;2023-10-13T06:46:05;46.67;;;12.82;;
40286;SDS011;25998;46.604;13.610;2023-10-13T06:49:21;37.53;;;12.43;;
40286;SDS011;25998;46.604;13.610;2023-10-13T06:52:36;56.90;;;13.00;;
40286;SDS011;25998;46.604;13.610;2023-10-13T06:55:47;47.88;;;12.93;;
40286;SDS011;25998;46.604;13.610;2023-10-13T06:59:03;50.40;;;13.00;;
40286;SDS011;25998;46.604;13.610;2023-10-13T07:02:19;49.30;;;12.05;;
40286;SDS011;25998;46.604;13.610;2023-10-13T07:05:36;52.58;;;12.48;;
40286;SDS011;25998;46.604;13.610;2023-10-13T07:08:56;47.10;;;11.43;;
40286;SDS011;25998;46.604;13.610;2023-10-13T07:12:07;47.22;;;12.75;;
40286;SDS011;25998;46.604;13.610;2023-10-13T07:15:26;43.88;;;10.43;;
40286;SDS011;25998;46.604;13.610;2023-10-13T07:18:40;61.65;;;12.80;;
40286;SDS011;25998;46.604;13.610;2023-10-13T07:22:00;24.50;;;9.40;;
40286;SDS011;25998;46.604;13.610;2023-10-13T07:25:30;27.52;;;8.55;;
40286;SDS011;25998;46.604;13.610;2023-10-13T07:28:47;32.90;;;8.77;;
40286;SDS011;25998;46.604;13.610;2023-10-13T07:32:02;24.42;;;8.65;;
40286;SDS011;25998;46.604;13.610;2023-10-13T07:35:22;34.42;;;9.90;;
40286;SDS011;25998;46.604;13.610;2023-10-13T07:38:34;45.35;;;10.35;;
40286;SDS011;25998;46.604;13.610;2023-10-13T07:41:48;23.88;;;8.85;;
40286;SDS011;25998;46.604;13.610;2023-10-13T07:45:20;20.08;;;7.50;;
40286;SDS011;25998;46.604;13.610;2023-10-13T07:48:38;13.63;;;6.90;;
40286;SDS011;25998;46.604;13.610;2023-10-13T07:51:55;15.23;;;7.60;;
40286;SDS011;25998;46.604;13.610;2023-10-13T07:55:13;13.15;;;6.28;;
40286;SDS011;25998;46.604;13.610;2023-10-13T07:58:32;12.43;;;8.65;;
40286;SDS011;25998;46.604;13.610;2023-10-13T08:01:44;26.95;;;9.57;;
40286;SDS011;25998;46.604;13.610;2023-10-13T08:04:57;16.80;;;7.63;;
40286;SDS011;25998;46.604;13.610;2023-10-13T08:08:08;12.65;;;7.13;;
40286;SDS011;25998;46.604;13.610;2023-10-13T08:11:24;25.00;;;8.63;;
40286;SDS011;25998;46.604;13.610;2023-10-13T08:14:47;12.95;;;6.72;;
40286;SDS011;25998;46.604;13.610;2023-10-13T08:18:21;11.75;;;5.70;;
40286;SDS011;25998;46.604;13.610;2023-10-13T08:21:54;11.20;;;6.30;;
40286;SDS011;25998;46.604;13.610;2023-10-13T08:25:09;14.00;;;6.18;;
40286;SDS011;25998;46.604;13.610;2023-10-13T08:28:30;13.23;;;7.18;;
40286;SDS011;25998;46.604;13.610;2023-10-13T08:32:04;16.60;;;7.80;;
40286;SDS011;25998;46.604;13.610;2023-10-13T08:35:25;14.93;;;7.82;;
40286;SDS011;25998;46.604;13.610;2023-10-13T08:38:45;9.77;;;6.10;;
40286;SDS011;25998;46.604;13.610;2023-10-13T08:42:02;14.95;;;6.75;;
40286;SDS011;25998;46.604;13.610;2023-10-13T08:48:38;22.00;;;7.57;;
40286;SDS011;25998;46.604;13.610;2023-10-13T08:51:51;12.13;;;7.20;;
40286;SDS011;25998;46.604;13.610;2023-10-13T08:55:26;24.70;;;8.48;;
40286;SDS011;25998;46.604;13.610;2023-10-13T08:58:50;10.98;;;6.00;;
40286;SDS011;25998;46.604;13.610;2023-10-13T09:02:03;17.48;;;7.75;;
40286;SDS011;25998;46.604;13.610;2023-10-13T09:05:26;9.73;;;5.47;;
40286;SDS011;25998;46.604;13.610;2023-10-13T09:09:06;33.15;;;13.10;;
40286;SDS011;25998;46.604;13.610;2023-10-13T09:12:22;13.18;;;6.55;;
40286;SDS011;25998;46.604;13.610;2023-10-13T09:15:43;9.13;;;5.50;;
40286;SDS011;25998;46.604;13.610;2023-10-13T09:19:12;7.93;;;5.43;;
40286;SDS011;25998;46.604;13.610;2023-10-13T09:22:26;8.82;;;6.45;;
40286;SDS011;25998;46.604;13.610;2023-10-13T09:25:39;10.55;;;6.20;;
40286;SDS011;25998;46.604;13.610;2023-10-13T09:29:13;24.98;;;8.20;;
40286;SDS011;25998;46.604;13.610;2023-10-13T09:32:28;9.60;;;4.97;;
40286;SDS011;25998;46.604;13.610;2023-10-13T09:35:39;9.43;;;5.55;;
40286;SDS011;25998;46.604;13.610;2023-10-13T09:38:50;9.07;;;5.32;;
40286;SDS011;25998;46.604;13.610;2023-10-13T09:42:21;12.20;;;5.68;;
40286;SDS011;25998;46.604;13.610;2023-10-13T09:45:36;11.88;;;5.63;;
40286;SDS011;25998;46.604;13.610;2023-10-13T09:48:50;13.35;;;6.00;;
40286;SDS011;25998;46.604;13.610;2023-10-13T09:52:24;9.43;;;5.32;;
40286;SDS011;25998;46.604;13.610;2023-10-13T09:55:37;14.80;;;5.95;;
40286;SDS011;25998;46.604;13.610;2023-10-13T09:58:58;10.80;;;5.27;;
40286;SDS011;25998;46.604;13.610;2023-10-13T10:02:20;9.80;;;5.47;;
40286;SDS011;25998;46.604;13.610;2023-10-13T10:05:37;9.70;;;5.88;;
40286;SDS011;25998;46.604;13.610;2023-10-13T10:08:50;8.63;;;5.03;;
40286;SDS011;25998;46.604;13.610;2023-10-13T10:12:14;11.88;;;6.25;;
40286;SDS011;25998;46.604;13.610;2023-10-13T10:15:50;10.23;;;5.85;;
40286;SDS011;25998;46.604;13.610;2023-10-13T10:19:04;10.68;;;5.30;;
40286;SDS011;25998;46.604;13.610;2023-10-13T10:22:27;8.85;;;5.60;;
40286;SDS011;25998;46.604;13.610;2023-10-13T10:25:47;11.75;;;6.13;;
40286;SDS011;25998;46.604;13.610;2023-10-13T10:29:10;9.15;;;5.25;;
40286;SDS011;25998;46.604;13.610;2023-10-13T10:32:21;10.80;;;5.43;;
40286;SDS011;25998;46.604;13.610;2023-10-13T10:35:42;12.38;;;6.18;;
40286;SDS011;25998;46.604;13.610;2023-10-13T10:38:55;9.63;;;5.07;;
40286;SDS011;25998;46.604;13.610;2023-10-13T10:42:13;13.18;;;5.82;;
40286;SDS011;25998;46.604;13.610;2023-10-13T10:45:45;9.27;;;5.20;;
40286;SDS011;25998;46.604;13.610;2023-10-13T10:49:11;10.73;;;5.15;;
40286;SDS011;25998;46.604;13.610;2023-10-13T10:52:40;10.40;;;5.50;;
40286;SDS011;25998;46.604;13.610;2023-10-13T10:56:11;12.18;;;5.43;;
40286;SDS011;25998;46.604;13.610;2023-10-13T10:59:45;8.60;;;5.32;;
40286;SDS011;25998;46.604;13.610;2023-10-13T11:02:59;7.88;;;4.47;;
40286;SDS011;25998;46.604;13.610;2023-10-13T11:06:14;10.88;;;5.07;;
40286;SDS011;25998;46.604;13.610;2023-10-13T11:09:32;11.98;;;4.72;;
40286;SDS011;25998;46.604;13.610;2023-10-13T11:12:56;10.52;;;5.80;;
40286;SDS011;25998;46.604;13.610;2023-10-13T11:16:26;10.75;;;5.40;;
40286;SDS011;25998;46.604;13.610;2023-10-13T11:19:44;9.05;;;5.30;;
40286;SDS011;25998;46.604;13.610;2023-10-13T11:22:55;13.02;;;5.75;;
40286;SDS011;25998;46.604;13.610;2023-10-13T11:26:06;11.35;;;5.43;;
40286;SDS011;25998;46.604;13.610;2023-10-13T11:29:18;11.30;;;5.55;;
40286;SDS011;25998;46.604;13.610;2023-10-13T11:32:33;8.80;;;5.43;;
40286;SDS011;25998;46.604;13.610;2023-10-13T11:35:44;7.93;;;4.97;;
40286;SDS011;25998;46.604;13.610;2023-10-13T11:39:09;12.13;;;5.57;;
40286;SDS011;25998;46.604;13.610;2023-10-13T11:42:27;11.10;;;5.25;;
40286;SDS011;25998;46.604;13.610;2023-10-13T11:45:41;9.00;;;4.72;;
40286;SDS011;25998;46.604;13.610;2023-10-13T11:49:24;11.65;;;5.53;;
40286;SDS011;25998;46.604;13.610;2023-10-13T11:52:40;11.63;;;5.85;;
40286;SDS011;25998;46.604;13.610;2023-10-13T11:55:55;9.43;;;5.30;;
40286;SDS011;25998;46.604;13.610;2023-10-13T11:59:06;10.30;;;5.32;;
40286;SDS011;25998;46.604;13.610;2023-10-13T12:06:00;10.57;;;5.18;;
40286;SDS011;25998;46.604;13.610;2023-10-13T12:13:10;10.98;;;6.75;;
40286;SDS011;25998;46.604;13.610;2023-10-13T12:16:35;12.38;;;7.10;;
40286;SDS011;25998;46.604;13.610;2023-10-13T12:23:35;12.25;;;6.05;;
40286;SDS011;25998;46.604;13.610;2023-10-13T12:27:07;14.23;;;5.93;;
40286;SDS011;25998;46.604;13.610;2023-10-13T12:30:29;11.02;;;6.30;;
40286;SDS011;25998;46.604;13.610;2023-10-13T12:33:58;10.45;;;5.65;;
40286;SDS011;25998;46.604;13.610;2023-10-13T12:37:19;10.15;;;6.32;;
40286;SDS011;25998;46.604;13.610;2023-10-13T12:40:49;10.23;;;6.28;;
40286;SDS011;25998;46.604;13.610;2023-10-13T12:44:21;12.15;;;6.47;;
40286;SDS011;25998;46.604;13.610;2023-10-13T12:48:01;12.02;;;6.20;;
40286;SDS011;25998;46.604;13.610;2023-10-13T12:51:34;11.10;;;6.25;;
40286;SDS011;25998;46.604;13.610;2023-10-13T12:55:03;11.27;;;6.55;;
40286;SDS011;25998;46.604;13.610;2023-10-13T12:58:16;16.20;;;7.80;;
40286;SDS011;25998;46.604;13.610;2023-10-13T13:01:37;11.88;;;6.72;;
40286;SDS011;25998;46.604;13.610;2023-10-13T13:05:03;13.40;;;6.75;;
40286;SDS011;25998;46.604;13.610;2023-10-13T13:08:21;12.05;;;6.65;;
40286;SDS011;25998;46.604;13.610;2023-10-13T13:11:35;9.80;;;6.97;;
40286;SDS011;25998;46.604;13.610;2023-10-13T13:15:01;13.63;;;7.70;;
40286;SDS011;25998;46.604;13.610;2023-10-13T13:18:27;19.88;;;6.63;;
40286;SDS011;25998;46.604;13.610;2023-10-13T13:21:41;19.73;;;6.80;;
40286;SDS011;25998;46.604;13.610;2023-10-13T13:25:01;13.52;;;7.00;;
40286;SDS011;25998;46.604;13.610;2023-10-13T13:28:18;13.27;;;7.03;;
40286;SDS011;25998;46.604;13.610;2023-10-13T13:31:32;13.02;;;7.00;;
40286;SDS011;25998;46.604;13.610;2023-10-13T13:34:51;13.15;;;7.10;;
40286;SDS011;25998;46.604;13.610;2023-10-13T13:38:16;16.67;;;6.78;;
40286;SDS011;25998;46.604;13.610;2023-10-13T13:41:48;13.63;;;6.82;;
40286;SDS011;25998;46.604;13.610;2023-10-13T13:45:19;15.18;;;6.82;;
40286;SDS011;25998;46.604;13.610;2023-10-13T13:48:39;11.60;;;6.97;;
40286;SDS011;25998;46.604;13.610;2023-10-13T13:51:52;13.70;;;6.75;;
40286;SDS011;25998;46.604;13.610;2023-10-13T13:55:04;11.30;;;6.80;;
40286;SDS011;25998;46.604;13.610;2023-10-13T13:58:20;11.30;;;7.10;;
40286;SDS011;25998;46.604;13.610;2023-10-13T14:01:34;11.75;;;7.00;;
40286;SDS011;25998;46.604;13.610;2023-10-13T14:04:47;12.90;;;7.20;;
40286;SDS011;25998;46.604;13.610;2023-10-13T14:08:00;15.13;;;7.00;;
40286;SDS011;25998;46.604;13.610;2023-10-13T14:11:24;15.80;;;7.25;;
40286;SDS011;25998;46.604;13.610;2023-10-13T14:14:49;15.60;;;7.00;;
40286;SDS011;25998;46.604;13.610;2023-10-13T14:18:06;13.30;;;7.57;;
40286;SDS011;25998;46.604;13.610;2023-10-13T14:21:20;11.85;;;6.88;;
40286;SDS011;25998;46.604;13.610;2023-10-13T14:24:37;14.82;;;7.75;;
40286;SDS011;25998;46.604;13.610;2023-10-13T14:28:08;14.63;;;8.32;;
40286;SDS011;25998;46.604;13.610;2023-10-13T14:31:27;9.90;;;7.20;;
40286;SDS011;25998;46.604;13.610;2023-10-13T14:34:39;12.50;;;7.07;;
40286;SDS011;25998;46.604;13.610;2023-10-13T14:37:53;12.45;;;7.47;;
40286;SDS011;25998;46.604;13.610;2023-10-13T14:41:14;12.10;;;7.53;;
40286;SDS011;25998;46.604;13.610;2023-10-13T14:44:28;18.90;;;8.13;;
40286;SDS011;25998;46.604;13.610;2023-10-13T14:47:39;11.57;;;7.75;;
40286;SDS011;25998;46.604;13.610;2023-10-13T14:50:51;13.48;;;8.93;;
40286;SDS011;25998;46.604;13.610;2023-10-13T14:54:02;12.05;;;7.70;;
40286;SDS011;25998;46.604;13.610;2023-10-13T14:57:19;11.80;;;7.82;;
40286;SDS011;25998;46.604;13.610;2023-10-13T15:00:34;12.82;;;7.28;;
40286;SDS011;25998;46.604;13.610;2023-10-13T15:03:47;17.10;;;8.30;;
40286;SDS011;25998;46.604;13.610;2023-10-13T15:07:13;12.57;;;8.80;;
40286;SDS011;25998;46.604;13.610;2023-10-13T15:10:25;16.95;;;9.20;;
40286;SDS011;25998;46.604;13.610;2023-10-13T15:13:36;11.85;;;7.68;;
40286;SDS011;25998;46.604;13.610;2023-10-13T15:16:53;13.63;;;8.35;;
40286;SDS011;25998;46.604;13.610;2023-10-13T15:20:08;12.93;;;8.02;;
40286;SDS011;25998;46.604;13.610;2023-10-13T15:23:20;16.88;;;8.50;;
40286;SDS011;25998;46.604;13.610;2023-10-13T15:26:35;11.75;;;8.52;;
40286;SDS011;25998;46.604;13.610;2023-10-13T15:29:51;13.10;;;9.10;;
40286;SDS011;25998;46.604;13.610;2023-10-13T15:33:10;13.85;;;8.73;;
40286;SDS011;25998;46.604;13.610;2023-10-13T15:36:24;17.38;;;8.82;;
40286;SDS011;25998;46.604;13.610;2023-10-13T15:39:37;11.90;;;7.93;;
40286;SDS011;25998;46.604;13.610;2023-10-13T15:42:49;13.57;;;8.60;;
40286;SDS011;25998;46.604;13.610;2023-10-13T15:46:01;15.48;;;8.90;;
40286;SDS011;25998;46.604;13.610;2023-10-13T15:49:17;15.13;;;8.55;;
40286;SDS011;25998;46.604;13.610;2023-10-13T15:52:28;12.93;;;8.55;;
40286;SDS011;25998;46.604;13.610;2023-10-13T15:55:41;19.85;;;9.13;;
40286;SDS011;25998;46.604;13.610;2023-10-13T15:58:56;13.95;;;8.23;;
40286;SDS011;25998;46.604;13.610;2023-10-13T16:02:06;14.10;;;8.65;;
40286;SDS011;25998;46.604;13.610;2023-10-13T16:05:31;15.23;;;9.23;;
40286;SDS011;25998;46.604;13.610;2023-10-13T16:08:49;14.18;;;8.20;;
40286;SDS011;25998;46.604;13.610;2023-10-13T16:12:01;17.67;;;9.40;;
40286;SDS011;25998;46.604;13.610;2023-10-13T16:15:12;14.95;;;9.93;;
40286;SDS011;25998;46.604;13.610;2023-10-13T16:18:23;13.02;;;9.02;;
40286;SDS011;25998;46.604;13.610;2023-10-13T16:21:34;18.73;;;10.15;;
40286;SDS011;25998;46.604;13.610;2023-10-13T16:24:49;17.35;;;9.77;;
40286;SDS011;25998;46.604;13.610;2023-10-13T16:28:00;20.50;;;10.52;;
40286;SDS011;25998;46.604;13.610;2023-10-13T16:31:11;19.92;;;10.15;;
40286;SDS011;25998;46.604;13.610;2023-10-13T16:34:21;21.85;;;10.70;;
40286;SDS011;25998;46.604;13.610;2023-10-13T16:37:35;21.80;;;9.30;;
40286;SDS011;25998;46.604;13.610;2023-10-13T16:40:46;27.02;;;11.75;;
40286;SDS011;25998;46.604;13.610;2023-10-13T16:44:02;34.53;;;11.80;;
40286;SDS011;25998;46.604;13.610;2023-10-13T16:47:19;23.02;;;11.02;;
40286;SDS011;25998;46.604;13.610;2023-10-13T16:50:31;28.38;;;11.50;;
40286;SDS011;25998;46.604;13.610;2023-10-13T16:53:47;31.13;;;12.32;;
40286;SDS011;25998;46.604;13.610;2023-10-13T16:57:01;25.52;;;11.07;;
40286;SDS011;25998;46.604;13.610;2023-10-13T17:00:14;21.48;;;11.88;;
40286;SDS011;25998;46.604;13.610;2023-10-13T17:03:25;17.02;;;10.70;;
40286;SDS011;25998;46.604;13.610;2023-10-13T17:06:42;23.55;;;11.82;;
40286;SDS011;25998;46.604;13.610;2023-10-13T17:09:53;17.65;;;10.93;;
40286;SDS011;25998;46.604;13.610;2023-10-13T17:13:07;22.67;;;11.95;;
40286;SDS011;25998;46.604;13.610;2023-10-13T17:16:19;25.42;;;12.20;;
40286;SDS011;25998;46.604;13.610;2023-10-13T17:19:31;21.20;;;11.57;;
40286;SDS011;25998;46.604;13.610;2023-10-13T17:22:44;20.77;;;10.65;;
40286;SDS011;25998;46.604;13.610;2023-10-13T17:25:56;17.23;;;10.48;;
40286;SDS011;25998;46.604;13.610;2023-10-13T17:29:07;18.80;;;11.10;;
40286;SDS011;25998;46.604;13.610;2023-10-13T17:32:19;15.68;;;10.00;;
40286;SDS011;25998;46.604;13.610;2023-10-13T17:35:33;18.63;;;10.20;;
40286;SDS011;25998;46.604;13.610;2023-10-13T17:38:43;17.95;;;10.98;;
40286;SDS011;25998;46.604;13.610;2023-10-13T17:41:55;16.23;;;10.05;;
40286;SDS011;25998;46.604;13.610;2023-10-13T17:45:06;14.13;;;10.02;;
40286;SDS011;25998;46.604;13.610;2023-10-13T17:48:19;18.55;;;10.45;;
40286;SDS011;25998;46.604;13.610;2023-10-13T17:51:32;16.15;;;10.60;;
40286;SDS011;25998;46.604;13.610;2023-10-13T17:54:44;16.02;;;10.20;;
40286;SDS011;25998;46.604;13.610;2023-10-13T17:57:56;17.33;;;10.48;;
40286;SDS011;25998;46.604;13.610;2023-10-13T18:01:09;15.73;;;10.80;;
40286;SDS011;25998;46.604;13.610;2023-10-13T18:04:27;14.32;;;9.85;;
40286;SDS011;25998;46.604;13.610;2023-10-13T18:07:38;14.13;;;10.15;;
40286;SDS011;25998;46.604;13.610;2023-10-13T18:10:52;15.43;;;9.70;;
40286;SDS011;25998;46.604;13.610;2023-10-13T18:14:05;18.80;;;11.38;;
40286;SDS011;25998;46.604;13.610;2023-10-13T18:17:16;16.90;;;10.82;;
40286;SDS011;25998;46.604;13.610;2023-10-13T18:20:27;14.98;;;10.10;;
40286;SDS011;25998;46.604;13.610;2023-10-13T18:23:39;15.88;;;10.10;;
40286;SDS011;25998;46.604;13.610;2023-10-13T18:26:50;16.35;;;10.85;;
40286;SDS011;25998;46.604;13.610;2023-10-13T18:30:01;15.02;;;10.50;;
40286;SDS011;25998;46.604;13.610;2023-10-13T18:33:13;14.63;;;10.60;;
40286;SDS011;25998;46.604;13.610;2023-10-13T18:36:25;15.85;;;11.15;;
40286;SDS011;25998;46.604;13.610;2023-10-13T18:39:39;18.35;;;10.80;;
40286;SDS011;25998;46.604;13.610;2023-10-13T18:42:50;15.38;;;11.07;;
40286;SDS011;25998;46.604;13.610;2023-10-13T18:46:02;17.35;;;11.27;;
40286;SDS011;25998;46.604;13.610;2023-10-13T18:49:16;15.57;;;11.05;;
40286;SDS011;25998;46.604;13.610;2023-10-13T18:52:27;16.05;;;11.38;;
40286;SDS011;25998;46.604;13.610;2023-10-13T18:55:38;16.98;;;11.10;;
40286;SDS011;25998;46.604;13.610;2023-10-13T18:58:50;21.80;;;11.18;;
40286;SDS011;25998;46.604;13.610;2023-10-13T19:02:05;15.35;;;10.38;;
40286;SDS011;25998;46.604;13.610;2023-10-13T19:05:17;15.95;;;11.30;;
40286;SDS011;25998;46.604;13.610;2023-10-13T19:08:30;12.43;;;10.57;;
40286;SDS011;25998;46.604;13.610;2023-10-13T19:11:43;15.55;;;10.45;;
40286;SDS011;25998;46.604;13.610;2023-10-13T19:14:55;17.13;;;11.80;;
40286;SDS011;25998;46.604;13.610;2023-10-13T19:18:09;15.23;;;11.65;;
40286;SDS011;25998;46.604;13.610;2023-10-13T19:21:20;17.55;;;11.48;;
40286;SDS011;25998;46.604;13.610;2023-10-13T19:24:31;15.38;;;10.80;;
40286;SDS011;25998;46.604;13.610;2023-10-13T19:27:46;17.23;;;11.50;;
40286;SDS011;25998;46.604;13.610;2023-10-13T19:30:57;17.17;;;11.52;;